Time;durP1;ratioP1;P1;durP2;ratioP2;P2;SDS_P1;SDS_P2;PMS_P1;PMS_P2;Temp;Humidity;BMP_temperature;BMP_pressure;BME280_temperature;BME280_humidity;BME280_pressure;Samples;Min_cycle;Max_cycle;Signal;HPM_P1;HPM_P2
2023/07/12 00:00:21;;;;;;;3.93;2.13;;;;;;;;;;5022435;27;88040;-55
2023/07/12 00:02:50;;;;;;;3.60;1.60;;;;;;;;;;5023210;27;87498;-55
2023/07/12 00:05:18;;;;;;;3.27;2.13;;;;;;;;;;5026864;27;87728;-55
2023/07/12 00:07:47;;;;;;;2.20;2.00;;;;;;;;;;5030946;27;88782;-55
2023/07/12 00:10:18;;;;;;;2.73;1.73;;;;;;;;;;5022463;27;89064;-55
2023/07/12 00:12:46;;;;;;;2.63;1.83;;;;;;;;;;5032527;27;87463;-55
2023/07/12 00:15:16;;;;;;;1.90;1.60;;;;;;;;;;5030456;27;87616;-55
2023/07/12 00:17:45;;;;;;;3.33;1.67;;;;;;;;;;5034622;27;87597;-54
2023/07/12 00:20:24;;;;;;;2.67;1.50;;;;;;;;;;5029500;27;89017;-54
2023/07/12 00:22:52;;;;;;;2.27;1.53;;;;;;;;;;5042842;27;87444;-55
2023/07/12 00:25:22;;;;;;;2.93;1.43;;;;;;;;;;5042274;27;87093;-56
2023/07/12 00:27:51;;;;;;;1.10;1.00;;;;;;;;;;5032107;27;88702;-55
2023/07/12 00:30:20;;;;;;;1.47;1.20;;;;;;;;;;5032790;27;88027;-55
2023/07/12 00:32:49;;;;;;;2.27;1.47;;;;;;;;;;5035409;27;87509;-53
2023/07/12 00:35:18;;;;;;;1.93;1.57;;;;;;;;;;5035246;27;87757;-55
2023/07/12 00:37:47;;;;;;;1.67;1.37;;;;;;;;;;5040401;28;88845;-55
2023/07/12 00:40:33;;;;;;;1.50;1.20;;;;;;;;;;5037430;27;88191;-55
2023/07/12 00:43:05;;;;;;;1.43;1.20;;;;;;;;;;5027414;27;87648;-55
2023/07/12 00:45:33;;;;;;;2.00;1.23;;;;;;;;;;5026969;27;87503;-55
2023/07/12 00:48:02;;;;;;;4.93;1.47;;;;;;;;;;5022765;27;88589;-55
2023/07/12 00:50:31;;;;;;;2.60;1.50;;;;;;;;;;5027372;27;88180;-54
2023/07/12 00:52:59;;;;;;;1.47;1.13;;;;;;;;;;5052571;27;87442;-55
2023/07/12 00:55:46;;;;;;;5.13;1.37;;;;;;;;;;5053703;27;87654;-55
2023/07/12 00:58:16;;;;;;;2.63;1.37;;;;;;;;;;5043603;27;90119;-55
2023/07/12 01:00:44;;;;;;;2.33;1.17;;;;;;;;;;5059382;27;89094;-55
2023/07/12 01:03:14;;;;;;;1.20;1.00;;;;;;;;;;5045115;27;87564;-55
2023/07/12 01:05:42;;;;;;;2.03;1.07;;;;;;;;;;5041837;27;87708;-55
2023/07/12 01:08:11;;;;;;;2.13;1.00;;;;;;;;;;5049083;27;88601;-55
2023/07/12 01:10:39;;;;;;;2.00;1.07;;;;;;;;;;5049635;27;88062;-55
2023/07/12 01:13:08;;;;;;;2.73;1.40;;;;;;;;;;5054797;27;87193;-55
2023/07/12 01:15:37;;;;;;;1.87;0.90;;;;;;;;;;5052594;27;87676;-55
2023/07/12 01:18:06;;;;;;;2.13;1.40;;;;;;;;;;5041856;27;88725;-55
2023/07/12 01:20:38;;;;;;;1.53;0.90;;;;;;;;;;5042656;27;87804;-55
2023/07/12 01:23:08;;;;;;;0.80;0.80;;;;;;;;;;5042897;27;87349;-55
2023/07/12 01:25:37;;;;;;;1.10;0.90;;;;;;;;;;5050905;27;87680;-56
2023/07/12 01:28:05;;;;;;;0.90;0.77;;;;;;;;;;5061984;27;89462;-55
2023/07/12 01:30:33;;;;;;;1.43;0.80;;;;;;;;;;5056667;27;88256;-55
2023/07/12 01:33:03;;;;;;;1.30;0.83;;;;;;;;;;5043233;27;87728;-55
2023/07/12 01:35:32;;;;;;;2.00;0.97;;;;;;;;;;5047828;27;87647;-56
2023/07/12 01:38:00;;;;;;;2.17;0.90;;;;;;;;;;5041591;27;88716;-55
2023/07/12 01:40:30;;;;;;;3.13;1.00;;;;;;;;;;5040751;27;88311;-56
2023/07/12 01:42:58;;;;;;;1.17;1.03;;;;;;;;;;5041759;27;87619;-55
2023/07/12 01:45:27;;;;;;;1.87;0.90;;;;;;;;;;5044614;27;87629;-55
2023/07/12 01:47:56;;;;;;;1.47;1.00;;;;;;;;;;5045102;27;89711;-55
2023/07/12 01:50:25;;;;;;;1.43;0.77;;;;;;;;;;5044530;27;88835;-55
2023/07/12 01:52:53;;;;;;;1.53;1.00;;;;;;;;;;5044866;27;87415;-55
2023/07/12 01:55:21;;;;;;;1.23;0.73;;;;;;;;;;5045051;27;87366;-55
2023/07/12 01:57:51;;;;;;;2.80;0.87;;;;;;;;;;5044815;27;88593;-55
2023/07/12 02:00:20;;;;;;;2.93;1.07;;;;;;;;;;5044527;27;89187;-55
2023/07/12 02:02:48;;;;;;;1.63;0.93;;;;;;;;;;5044951;27;87330;-55
2023/07/12 02:05:18;;;;;;;0.60;0.60;;;;;;;;;;5045085;27;87409;-55
2023/07/12 02:07:46;;;;;;;0.77;0.63;;;;;;;;;;5045274;27;88173;-55
2023/07/12 02:10:16;;;;;;;1.10;0.87;;;;;;;;;;5043189;27;89224;-55
2023/07/12 02:12:44;;;;;;;1.47;0.90;;;;;;;;;;5056744;27;87606;-55
2023/07/12 02:15:14;;;;;;;1.10;0.60;;;;;;;;;;5044027;27;87710;-55
2023/07/12 02:17:42;;;;;;;2.37;0.67;;;;;;;;;;5045275;27;88750;-55
2023/07/12 02:20:11;;;;;;;0.97;0.70;;;;;;;;;;5056613;27;87988;-55
2023/07/12 02:22:41;;;;;;;1.30;0.77;;;;;;;;;;5053115;27;87674;-55
2023/07/12 02:25:10;;;;;;;1.53;0.57;;;;;;;;;;5048906;27;87611;-55
2023/07/12 02:27:38;;;;;;;1.23;0.70;;;;;;;;;;5055395;27;88714;-55
2023/07/12 02:30:07;;;;;;;0.40;0.40;;;;;;;;;;5042855;27;89335;-55
2023/07/12 02:32:37;;;;;;;0.70;0.60;;;;;;;;;;5047361;27;87477;-55
2023/07/12 02:35:06;;;;;;;0.50;0.50;;;;;;;;;;5044771;27;87698;-55
2023/07/12 02:37:34;;;;;;;1.30;0.60;;;;;;;;;;5048896;27;88599;-55
2023/07/12 02:40:03;;;;;;;0.83;0.50;;;;;;;;;;5037544;27;87547;-55
2023/07/12 02:42:34;;;;;;;0.60;0.60;;;;;;;;;;5041008;27;87477;-54
2023/07/12 02:45:02;;;;;;;1.83;0.47;;;;;;;;;;5046664;27;87731;-55
2023/07/12 02:47:30;;;;;;;1.30;0.60;;;;;;;;;;5042057;27;88812;-56
2023/07/12 02:50:00;;;;;;;0.97;0.60;;;;;;;;;;5046177;27;89352;-55
2023/07/12 02:52:28;;;;;;;0.50;0.50;;;;;;;;;;5040520;27;88153;-54
2023/07/12 02:54:57;;;;;;;0.60;0.60;;;;;;;;;;5040590;27;88680;-55
2023/07/12 02:57:25;;;;;;;0.50;0.50;;;;;;;;;;5051175;27;88704;-54
2023/07/12 02:59:53;;;;;;;0.67;0.63;;;;;;;;;;5040986;28;87951;-55
2023/07/12 03:02:22;;;;;;;1.23;0.80;;;;;;;;;;5047969;27;87579;-55
2023/07/12 03:04:50;;;;;;;2.30;0.73;;;;;;;;;;5060989;27;87485;-55
2023/07/12 03:07:20;;;;;;;1.20;0.70;;;;;;;;;;5052170;27;88562;-55
2023/07/12 03:09:48;;;;;;;0.60;0.60;;;;;;;;;;5041421;27;89653;-55
2023/07/12 03:12:17;;;;;;;0.80;0.77;;;;;;;;;;5048905;27;87673;-55
2023/07/12 03:14:45;;;;;;;2.23;0.87;;;;;;;;;;5041044;27;87530;-55
2023/07/12 03:17:14;;;;;;;1.10;0.60;;;;;;;;;;5053357;27;89798;-55
2023/07/12 03:19:42;;;;;;;1.30;0.60;;;;;;;;;;5040501;27;87952;-56
2023/07/12 03:22:10;;;;;;;0.60;0.50;;;;;;;;;;5042547;27;87601;-55
2023/07/12 03:24:40;;;;;;;0.90;0.70;;;;;;;;;;5060923;27;87757;-55
2023/07/12 03:27:08;;;;;;;1.83;0.80;;;;;;;;;;5043494;27;88667;-55
2023/07/12 03:29:37;;;;;;;0.83;0.53;;;;;;;;;;5060700;27;89299;-55
2023/07/12 03:32:05;;;;;;;0.57;0.50;;;;;;;;;;5060673;27;87546;-56
2023/07/12 03:34:34;;;;;;;1.30;0.63;;;;;;;;;;5020390;28;87644;-55
2023/07/12 03:37:02;;;;;;;1.80;0.40;;;;;;;;;;5035903;27;88605;-55
2023/07/12 03:39:31;;;;;;;1.47;0.70;;;;;;;;;;5043195;27;88065;-56
2023/07/12 03:42:00;;;;;;;2.00;0.90;;;;;;;;;;5041018;27;87310;-55
2023/07/12 03:44:29;;;;;;;0.60;0.60;;;;;;;;;;5043445;27;87782;-55
2023/07/12 03:46:57;;;;;;;0.60;0.50;;;;;;;;;;5050217;27;88901;-55
2023/07/12 03:49:25;;;;;;;1.63;0.57;;;;;;;;;;5042321;27;87858;-55
2023/07/12 03:51:54;;;;;;;1.13;0.77;;;;;;;;;;5039940;27;88711;-55
2023/07/12 03:54:23;;;;;;;1.13;1.00;;;;;;;;;;5057286;27;87391;-56
2023/07/12 03:56:51;;;;;;;0.93;0.50;;;;;;;;;;5058706;27;90000;-56
2023/07/12 03:59:22;;;;;;;1.30;0.60;;;;;;;;;;5043620;27;87906;-55
2023/07/12 04:01:51;;;;;;;3.07;0.83;;;;;;;;;;5040326;28;87438;-56
2023/07/12 04:04:19;;;;;;;0.77;0.60;;;;;;;;;;5055151;27;87675;-55
2023/07/12 04:06:47;;;;;;;1.23;0.53;;;;;;;;;;5046368;27;89763;-54
2023/07/12 04:09:16;;;;;;;2.20;0.83;;;;;;;;;;5040562;27;89551;-56
2023/07/12 04:11:44;;;;;;;0.60;0.60;;;;;;;;;;5054083;27;87883;-55
2023/07/12 04:14:12;;;;;;;1.10;0.70;;;;;;;;;;5059499;27;87482;-55
2023/07/12 04:16:42;;;;;;;1.03;0.43;;;;;;;;;;5057735;27;89806;-55
2023/07/12 04:19:12;;;;;;;1.93;0.63;;;;;;;;;;5050113;27;89223;-55
2023/07/12 04:21:41;;;;;;;2.13;0.40;;;;;;;;;;5042478;27;87620;-55
2023/07/12 04:24:09;;;;;;;1.37;0.50;;;;;;;;;;5054312;27;87640;-55
2023/07/12 04:26:38;;;;;;;2.47;0.67;;;;;;;;;;5061255;27;88632;-55
2023/07/12 04:29:07;;;;;;;2.00;0.80;;;;;;;;;;5051920;27;88131;-55
2023/07/12 04:31:35;;;;;;;1.17;0.60;;;;;;;;;;5042567;27;87271;-54
2023/07/12 04:34:05;;;;;;;1.07;0.60;;;;;;;;;;5051432;27;87655;-55
2023/07/12 04:36:33;;;;;;;1.10;0.30;;;;;;;;;;5056479;27;89605;-55
2023/07/12 04:39:02;;;;;;;1.53;0.50;;;;;;;;;;5043201;27;87843;-55
2023/07/12 04:41:30;;;;;;;0.63;0.60;;;;;;;;;;5043037;27;87688;-55
2023/07/12 04:44:01;;;;;;;0.40;0.30;;;;;;;;;;5050213;27;87679;-55
2023/07/12 04:46:30;;;;;;;2.10;0.47;;;;;;;;;;5044059;27;88615;-55
2023/07/12 04:48:58;;;;;;;0.90;0.77;;;;;;;;;;5054974;27;88029;-55
2023/07/12 04:51:28;;;;;;;0.60;0.60;;;;;;;;;;5052191;27;89014;-55
2023/07/12 04:53:57;;;;;;;0.50;0.50;;;;;;;;;;5048488;27;87524;-55
2023/07/12 04:56:25;;;;;;;2.40;0.73;;;;;;;;;;5060515;27;88531;-55
2023/07/12 04:58:54;;;;;;;0.70;0.70;;;;;;;;;;5060514;27;87941;-55
2023/07/12 05:01:22;;;;;;;1.13;0.77;;;;;;;;;;5062577;27;87442;-55
2023/07/12 05:03:50;;;;;;;0.80;0.77;;;;;;;;;;5045653;27;87527;-55
2023/07/12 05:06:19;;;;;;;0.97;0.50;;;;;;;;;;5043566;27;88523;-55
2023/07/12 05:08:52;;;;;;;1.77;0.50;;;;;;;;;;5053591;27;88002;-55
2023/07/12 05:11:21;;;;;;;0.67;0.53;;;;;;;;;;5057085;27;87296;-55
2023/07/12 05:13:49;;;;;;;1.00;0.73;;;;;;;;;;5042888;27;87643;-55
2023/07/12 05:16:17;;;;;;;0.60;0.50;;;;;;;;;;5048483;27;88725;-55
2023/07/12 05:18:46;;;;;;;1.40;0.57;;;;;;;;;;5060868;27;89293;-55
2023/07/12 05:21:14;;;;;;;0.60;0.60;;;;;;;;;;5065964;27;87180;-55
2023/07/12 05:23:43;;;;;;;0.77;0.60;;;;;;;;;;5052438;27;87632;-55
2023/07/12 05:26:12;;;;;;;0.60;0.50;;;;;;;;;;5046242;27;88706;-55
2023/07/12 05:28:41;;;;;;;0.57;0.50;;;;;;;;;;5058971;27;89038;-55
2023/07/12 05:31:09;;;;;;;2.27;0.70;;;;;;;;;;5065936;27;87449;-55
2023/07/12 05:33:38;;;;;;;1.97;0.80;;;;;;;;;;5053554;27;87711;-55
2023/07/12 05:36:06;;;;;;;0.97;0.50;;;;;;;;;;5049438;27;89772;-55
2023/07/12 05:38:35;;;;;;;1.10;0.60;;;;;;;;;;5064614;27;87995;-55
2023/07/12 05:41:03;;;;;;;2.10;0.70;;;;;;;;;;5064127;27;87296;-55
2023/07/12 05:43:34;;;;;;;0.80;0.80;;;;;;;;;;5056521;27;87640;-55
2023/07/12 05:46:03;;;;;;;1.50;0.90;;;;;;;;;;5045529;27;88544;-55
2023/07/12 05:48:31;;;;;;;1.80;0.97;;;;;;;;;;5056587;27;88016;-55
2023/07/12 05:51:00;;;;;;;2.43;1.03;;;;;;;;;;5065711;27;87320;-55
2023/07/12 05:53:29;;;;;;;1.57;1.00;;;;;;;;;;5058806;27;87680;-56
2023/07/12 05:55:57;;;;;;;2.30;1.40;;;;;;;;;;5045964;27;89684;-55
2023/07/12 05:58:26;;;;;;;3.40;1.83;;;;;;;;;;5049603;27;88203;-55
2023/07/12 06:00:59;;;;;;;3.20;1.63;;;;;;;;;;5044425;28;87455;-55
2023/07/12 06:03:27;;;;;;;3.03;2.20;;;;;;;;;;5057666;27;87672;-55
2023/07/12 06:05:57;;;;;;;2.27;1.40;;;;;;;;;;5060420;27;88596;-55
2023/07/12 06:08:25;;;;;;;2.40;1.67;;;;;;;;;;5045849;27;87929;-55
2023/07/12 06:10:54;;;;;;;3.23;1.90;;;;;;;;;;5045563;27;87283;-56
2023/07/12 06:13:23;;;;;;;4.90;3.03;;;;;;;;;;5060143;27;87735;-55
2023/07/12 06:15:51;;;;;;;3.67;3.10;;;;;;;;;;5065406;27;89625;-56
2023/07/12 06:18:21;;;;;;;4.30;3.03;;;;;;;;;;5050692;27;88218;-55
2023/07/12 06:20:51;;;;;;;5.33;3.30;;;;;;;;;;5044782;27;87256;-56
2023/07/12 06:23:19;;;;;;;4.07;3.00;;;;;;;;;;5057515;27;87532;-54
2023/07/12 06:25:48;;;;;;;3.37;2.70;;;;;;;;;;5064765;27;90117;-55
2023/07/12 06:28:16;;;;;;;5.90;3.07;;;;;;;;;;5055954;27;89552;-55
2023/07/12 06:30:44;;;;;;;7.60;3.00;;;;;;;;;;5057160;27;88981;-55
2023/07/12 06:33:13;;;;;;;3.33;2.40;;;;;;;;;;5053375;27;87280;-55
2023/07/12 06:35:42;;;;;;;4.00;2.53;;;;;;;;;;5047234;27;89748;-55
2023/07/12 06:38:11;;;;;;;4.33;2.70;;;;;;;;;;5051621;27;90608;-55
2023/07/12 06:40:39;;;;;;;5.27;2.93;;;;;;;;;;5046837;27;89324;-55
2023/07/12 06:43:08;;;;;;;7.07;3.00;;;;;;;;;;5062873;27;87699;-55
2023/07/12 06:45:37;;;;;;;5.13;2.27;;;;;;;;;;5062412;27;89671;-55
2023/07/12 06:48:06;;;;;;;3.33;2.20;;;;;;;;;;5062976;27;89096;-55
2023/07/12 06:50:34;;;;;;;3.97;2.87;;;;;;;;;;5062844;27;87780;-54
2023/07/12 06:53:04;;;;;;;3.93;2.33;;;;;;;;;;5063015;27;87715;-55
2023/07/12 06:55:32;;;;;;;6.03;2.20;;;;;;;;;;5063063;27;89930;-54
2023/07/12 06:58:01;;;;;;;3.23;1.93;;;;;;;;;;5062847;27;88032;-55
2023/07/12 07:00:29;;;;;;;3.63;2.37;;;;;;;;;;5062588;27;87879;-56
2023/07/12 07:02:57;;;;;;;4.73;2.47;;;;;;;;;;5062682;27;88020;-55
2023/07/12 07:05:26;;;;;;;2.73;2.00;;;;;;;;;;5062684;27;88431;-55
2023/07/12 07:07:54;;;;;;;4.53;2.30;;;;;;;;;;5062739;27;89141;-55
2023/07/12 07:10:24;;;;;;;2.93;1.90;;;;;;;;;;5062686;27;88969;-55
2023/07/12 07:12:52;;;;;;;4.07;1.73;;;;;;;;;;5062950;27;87572;-55
2023/07/12 07:15:21;;;;;;;3.27;1.30;;;;;;;;;;5062223;27;88682;-55
2023/07/12 07:17:49;;;;;;;4.93;1.90;;;;;;;;;;5062705;27;88074;-55
2023/07/12 07:20:18;;;;;;;3.90;1.77;;;;;;;;;;5062927;27;88812;-55
2023/07/12 07:22:46;;;;;;;2.23;1.43;;;;;;;;;;5062590;27;87362;-55
2023/07/12 07:25:15;;;;;;;4.73;1.37;;;;;;;;;;5062442;27;87284;-55
2023/07/12 07:27:50;;;;;;;4.40;1.50;;;;;;;;;;5062280;27;89869;-55
2023/07/12 07:30:18;;;;;;;1.77;1.37;;;;;;;;;;5062338;27;88675;-55
2023/07/12 07:32:47;;;;;;;2.47;1.33;;;;;;;;;;5062607;27;87718;-55
2023/07/12 07:35:15;;;;;;;3.80;1.60;;;;;;;;;;5061955;27;88530;-55
2023/07/12 07:37:44;;;;;;;2.63;1.30;;;;;;;;;;5062216;27;88237;-55
2023/07/12 07:40:13;;;;;;;2.40;1.30;;;;;;;;;;5062462;27;87792;-55
2023/07/12 07:42:41;;;;;;;3.97;1.40;;;;;;;;;;5061633;27;87497;-55
2023/07/12 07:45:11;;;;;;;4.67;1.50;;;;;;;;;;5061479;27;89469;-55
2023/07/12 07:47:40;;;;;;;2.73;1.03;;;;;;;;;;5061765;27;89290;-54
2023/07/12 07:50:09;;;;;;;1.93;1.27;;;;;;;;;;5061957;27;88892;-55
2023/07/12 07:52:37;;;;;;;2.50;1.27;;;;;;;;;;5061732;27;87789;-54
2023/07/12 07:55:06;;;;;;;2.23;0.87;;;;;;;;;;5061753;27;89050;-55
2023/07/12 07:57:34;;;;;;;1.83;1.07;;;;;;;;;;5061731;27;89196;-55
2023/07/12 08:00:10;;;;;;;3.73;1.00;;;;;;;;;;5061892;27;88856;-55
2023/07/12 08:02:42;;;;;;;4.40;0.90;;;;;;;;;;5062276;27;87223;-55
2023/07/12 08:05:10;;;;;;;1.70;0.90;;;;;;;;;;5061812;27;89881;-55
2023/07/12 08:07:39;;;;;;;2.03;1.23;;;;;;;;;;5061652;27;88478;-55
2023/07/12 08:10:08;;;;;;;4.10;1.03;;;;;;;;;;5062082;27;87754;-55
2023/07/12 08:12:37;;;;;;;1.60;0.97;;;;;;;;;;5062063;27;87602;-55
2023/07/12 08:15:05;;;;;;;1.20;0.50;;;;;;;;;;5061325;27;88624;-55
2023/07/12 08:17:34;;;;;;;1.40;0.93;;;;;;;;;;5064014;27;87672;-54
2023/07/12 08:20:04;;;;;;;1.57;0.80;;;;;;;;;;5065222;27;87481;-55
2023/07/12 08:22:32;;;;;;;2.23;1.00;;;;;;;;;;5065246;27;87584;-54
2023/07/12 08:25:01;;;;;;;5.23;1.00;;;;;;;;;;5065669;27;89255;-55
2023/07/12 08:27:30;;;;;;;1.00;0.50;;;;;;;;;;5063509;27;88083;-55
2023/07/12 08:29:59;;;;;;;2.53;0.80;;;;;;;;;;5061313;27;87959;-54
2023/07/12 08:32:28;;;;;;;0.77;0.73;;;;;;;;;;5061683;27;87401;-55
2023/07/12 08:34:56;;;;;;;3.33;0.70;;;;;;;;;;5061443;27;89614;-55
2023/07/12 08:37:26;;;;;;;0.83;0.80;;;;;;;;;;5061251;27;88134;-55
2023/07/12 08:39:54;;;;;;;1.23;0.77;;;;;;;;;;5061245;27;88942;-55
2023/07/12 08:42:23;;;;;;;2.43;0.63;;;;;;;;;;5060480;27;87882;-55
2023/07/12 08:44:52;;;;;;;2.10;0.60;;;;;;;;;;5061059;27;88804;-55
2023/07/12 08:47:20;;;;;;;1.43;0.60;;;;;;;;;;5060893;27;88309;-55
2023/07/12 08:49:49;;;;;;;1.20;0.50;;;;;;;;;;5061164;27;87705;-55
2023/07/12 08:52:18;;;;;;;3.87;1.03;;;;;;;;;;5060925;27;87648;-55
2023/07/12 08:54:48;;;;;;;0.93;0.60;;;;;;;;;;5060802;27;88643;-55
2023/07/12 08:57:17;;;;;;;0.77;0.57;;;;;;;;;;5060945;27;89166;-55
2023/07/12 08:59:46;;;;;;;3.40;1.00;;;;;;;;;;5061110;27;87780;-55
2023/07/12 09:02:18;;;;;;;1.97;0.73;;;;;;;;;;5061496;27;87656;-55
2023/07/12 09:04:46;;;;;;;2.47;0.83;;;;;;;;;;5060982;27;88743;-55
2023/07/12 09:07:21;;;;;;;1.47;0.70;;;;;;;;;;5060514;27;89009;-55
2023/07/12 09:09:51;;;;;;;2.93;0.50;;;;;;;;;;5060708;27;88745;-55
2023/07/12 09:12:23;;;;;;;0.83;0.57;;;;;;;;;;5061258;27;87608;-54
2023/07/12 09:14:53;;;;;;;1.87;0.53;;;;;;;;;;5060760;27;89743;-55
2023/07/12 09:17:23;;;;;;;0.73;0.60;;;;;;;;;;5060800;27;89470;-55
2023/07/12 09:19:51;;;;;;;0.30;0.30;;;;;;;;;;5060958;27;89937;-54
2023/07/12 09:22:20;;;;;;;0.60;0.47;;;;;;;;;;5060973;27;87700;-54
2023/07/12 09:24:52;;;;;;;1.63;0.57;;;;;;;;;;5060671;27;89962;-55
2023/07/12 09:27:22;;;;;;;3.27;0.50;;;;;;;;;;5060803;27;89164;-55
2023/07/12 09:29:50;;;;;;;1.67;0.60;;;;;;;;;;5060598;27;88816;-54
2023/07/12 09:32:24;;;;;;;1.03;0.40;;;;;;;;;;5060582;27;88176;-54
2023/07/12 09:34:54;;;;;;;1.00;0.47;;;;;;;;;;5060474;27;88515;-55
2023/07/12 09:37:23;;;;;;;5.83;0.80;;;;;;;;;;5060182;27;87997;-55
2023/07/12 09:39:56;;;;;;;1.77;0.87;;;;;;;;;;5060360;27;87374;-55
2023/07/12 09:42:24;;;;;;;2.03;0.90;;;;;;;;;;5060256;27;87600;-55
2023/07/12 09:44:53;;;;;;;0.53;0.50;;;;;;;;;;5060378;27;89801;-55
2023/07/12 09:47:29;;;;;;;1.70;1.00;;;;;;;;;;5060060;27;87914;-55
2023/07/12 09:49:59;;;;;;;2.43;0.97;;;;;;;;;;5060738;27;88888;-55
2023/07/12 09:52:28;;;;;;;0.57;0.57;;;;;;;;;;5060786;27;87324;-55
2023/07/12 09:55:00;;;;;;;0.37;0.37;;;;;;;;;;5060059;27;88734;-55
2023/07/12 09:57:37;;;;;;;0.63;0.63;;;;;;;;;;5059754;27;87967;-54
2023/07/12 10:00:12;;;;;;;1.43;0.77;;;;;;;;;;5060484;27;87913;-55
2023/07/12 10:02:41;;;;;;;1.30;0.80;;;;;;;;;;5060531;27;87038;-55
2023/07/12 10:05:10;;;;;;;3.00;0.67;;;;;;;;;;5062782;27;89921;-54
2023/07/12 10:07:53;;;;;;;1.57;0.80;;;;;;;;;;5063483;27;89161;-56
2023/07/12 10:10:27;;;;;;;1.90;0.60;;;;;;;;;;5063690;27;87721;-56
2023/07/12 10:12:59;;;;;;;1.17;0.67;;;;;;;;;;5063842;27;87245;-56
2023/07/12 10:15:28;;;;;;;2.53;0.50;;;;;;;;;;5063535;27;89866;-56
2023/07/12 10:17:57;;;;;;;0.50;0.50;;;;;;;;;;5063123;27;89206;-56
2023/07/12 10:20:25;;;;;;;2.27;0.63;;;;;;;;;;5063515;27;88051;-56
2023/07/12 10:22:54;;;;;;;0.40;0.40;;;;;;;;;;5062967;27;88727;-56
2023/07/12 10:25:23;;;;;;;1.43;0.70;;;;;;;;;;5063290;27;89640;-57
2023/07/12 10:27:54;;;;;;;1.80;0.80;;;;;;;;;;5063395;27;88039;-55
2023/07/12 10:30:23;;;;;;;1.03;0.50;;;;;;;;;;5063243;27;88791;-57
2023/07/12 10:32:52;;;;;;;4.73;0.63;;;;;;;;;;5063749;27;87656;-55
2023/07/12 10:35:21;;;;;;;1.70;0.80;;;;;;;;;;5063006;27;89647;-56
2023/07/12 10:37:50;;;;;;;4.70;1.07;;;;;;;;;;5063019;27;88122;-56
2023/07/12 10:40:20;;;;;;;5.07;0.93;;;;;;;;;;5063316;27;88097;-56
2023/07/12 10:42:50;;;;;;;1.13;0.80;;;;;;;;;;5063355;27;87374;-56
2023/07/12 10:45:22;;;;;;;0.73;0.60;;;;;;;;;;5063125;27;89714;-57
2023/07/12 10:47:50;;;;;;;1.27;1.00;;;;;;;;;;5062199;27;87918;-56
2023/07/12 10:50:22;;;;;;;0.93;0.50;;;;;;;;;;5063067;27;88671;-56
2023/07/12 10:52:59;;;;;;;1.23;0.60;;;;;;;;;;5062949;27;87790;-57
2023/07/12 10:55:37;;;;;;;1.17;0.50;;;;;;;;;;5062586;27;88858;-57
2023/07/12 10:58:25;;;;;;;2.63;0.77;;;;;;;;;;5062758;27;88014;-57
2023/07/12 11:00:55;;;;;;;0.63;0.63;;;;;;;;;;5063047;27;87570;-57
2023/07/12 11:03:23;;;;;;;2.70;0.60;;;;;;;;;;5063128;27;87330;-57
2023/07/12 11:06:05;;;;;;;1.33;0.50;;;;;;;;;;5062343;27;88583;-56
2023/07/12 11:08:37;;;;;;;0.40;0.40;;;;;;;;;;5062649;27;87671;-57
2023/07/12 11:11:20;;;;;;;3.50;0.57;;;;;;;;;;5062830;27;87898;-56
2023/07/12 11:13:52;;;;;;;1.03;0.40;;;;;;;;;;5062292;27;87751;-57
2023/07/12 11:16:22;;;;;;;1.60;0.63;;;;;;;;;;5062040;27;88614;-57
2023/07/12 11:18:51;;;;;;;1.67;0.80;;;;;;;;;;5062376;27;89257;-57
2023/07/12 11:21:29;;;;;;;0.63;0.53;;;;;;;;;;5062321;27;87943;-57
2023/07/12 11:23:57;;;;;;;1.90;0.90;;;;;;;;;;5062857;27;87687;-57
2023/07/12 11:26:27;;;;;;;1.77;0.60;;;;;;;;;;5062626;27;89718;-57
2023/07/12 11:28:58;;;;;;;1.40;0.60;;;;;;;;;;5062154;27;90396;-54
2023/07/12 11:31:29;;;;;;;1.60;0.67;;;;;;;;;;5062601;27;88802;-54
2023/07/12 11:34:05;;;;;;;1.40;0.57;;;;;;;;;;5062558;27;87656;-55
2023/07/12 11:36:34;;;;;;;1.13;0.50;;;;;;;;;;5062013;27;89673;-55
2023/07/12 11:39:03;;;;;;;1.27;0.47;;;;;;;;;;5061385;27;90277;-54
2023/07/12 11:41:33;;;;;;;1.00;0.50;;;;;;;;;;5061764;27;89889;-55
2023/07/12 11:44:02;;;;;;;0.40;0.40;;;;;;;;;;5062721;27;87214;-54
2023/07/12 11:46:33;;;;;;;0.73;0.60;;;;;;;;;;5061559;27;88229;-54
2023/07/12 11:49:03;;;;;;;0.50;0.50;;;;;;;;;;5061668;27;88058;-54
2023/07/12 11:51:34;;;;;;;0.83;0.50;;;;;;;;;;5062221;27;87939;-54
2023/07/12 11:54:03;;;;;;;0.70;0.40;;;;;;;;;;5062358;27;87524;-54
2023/07/12 11:56:31;;;;;;;4.90;0.93;;;;;;;;;;5062048;27;87438;-54
2023/07/12 11:59:00;;;;;;;0.50;0.50;;;;;;;;;;5061832;27;89164;-54
2023/07/12 12:01:28;;;;;;;0.60;0.30;;;;;;;;;;5061934;27;89045;-54
2023/07/12 12:03:58;;;;;;;2.77;0.50;;;;;;;;;;5061529;27;87819;-55
2023/07/12 12:06:27;;;;;;;0.60;0.43;;;;;;;;;;5061653;27;88642;-55
2023/07/12 12:08:55;;;;;;;0.50;0.40;;;;;;;;;;5061570;27;88096;-55
2023/07/12 12:11:23;;;;;;;0.50;0.40;;;;;;;;;;5062024;27;89257;-55
2023/07/12 12:13:53;;;;;;;0.63;0.50;;;;;;;;;;5062118;27;87636;-55
2023/07/12 12:16:22;;;;;;;0.70;0.60;;;;;;;;;;5061462;27;89754;-55
2023/07/12 12:18:51;;;;;;;0.80;0.50;;;;;;;;;;5061229;27;89605;-55
2023/07/12 12:21:22;;;;;;;0.80;0.50;;;;;;;;;;5061714;27;88951;-54
2023/07/12 12:23:56;;;;;;;0.67;0.60;;;;;;;;;;5061981;27;87542;-55
2023/07/12 12:26:25;;;;;;;0.97;0.53;;;;;;;;;;5060691;27;88627;-55
2023/07/12 12:28:56;;;;;;;2.27;0.90;;;;;;;;;;5060888;27;89074;-55
2023/07/12 12:31:25;;;;;;;1.53;0.40;;;;;;;;;;5061580;27;88712;-55
2023/07/12 12:33:59;;;;;;;1.90;0.80;;;;;;;;;;5061486;27;87620;-55
2023/07/12 12:36:30;;;;;;;1.67;0.70;;;;;;;;;;5061094;27;88731;-55
2023/07/12 12:38:59;;;;;;;2.10;0.40;;;;;;;;;;5061575;27;88198;-55
2023/07/12 12:41:32;;;;;;;0.30;0.30;;;;;;;;;;5061029;27;87913;-55
2023/07/12 12:44:06;;;;;;;0.50;0.50;;;;;;;;;;5061618;27;87541;-54
2023/07/12 12:46:34;;;;;;;0.80;0.33;;;;;;;;;;5061305;27;88409;-55
2023/07/12 12:49:18;;;;;;;0.40;0.30;;;;;;;;;;5061228;27;88909;-55
2023/07/12 12:51:51;;;;;;;1.90;0.40;;;;;;;;;;5061193;27;87486;-55
2023/07/12 12:54:22;;;;;;;1.13;0.50;;;;;;;;;;5058397;27;87879;-55
2023/07/12 12:56:51;;;;;;;3.43;0.40;;;;;;;;;;5060968;27;89637;-54
2023/07/12 12:59:22;;;;;;;0.97;0.53;;;;;;;;;;5059951;27;87857;-55
2023/07/12 13:01:54;;;;;;;0.63;0.60;;;;;;;;;;5060136;27;87608;-55
2023/07/12 13:04:25;;;;;;;0.90;0.53;;;;;;;;;;5061006;27;87434;-55
2023/07/12 13:06:58;;;;;;;1.60;0.40;;;;;;;;;;5058639;27;87331;-54
2023/07/12 13:09:31;;;;;;;0.60;0.30;;;;;;;;;;5061027;27;87976;-55
2023/07/12 13:12:02;;;;;;;2.70;1.00;;;;;;;;;;5060150;27;88449;-55
2023/07/12 13:14:33;;;;;;;1.13;0.50;;;;;;;;;;5060971;27;87107;-55
2023/07/12 13:17:05;;;;;;;1.23;0.60;;;;;;;;;;5060206;27;88325;-55
2023/07/12 13:19:45;;;;;;;2.67;0.40;;;;;;;;;;5060556;27;90073;-55
2023/07/12 13:22:16;;;;;;;2.30;0.40;;;;;;;;;;5060667;27;87904;-56
2023/07/12 13:24:44;;;;;;;0.43;0.43;;;;;;;;;;5061279;27;87304;-55
2023/07/12 13:27:29;;;;;;;1.07;0.50;;;;;;;;;;5060606;27;89749;-55
2023/07/12 13:29:57;;;;;;;1.63;0.33;;;;;;;;;;5060586;27;88091;-56
2023/07/12 13:32:26;;;;;;;0.50;0.50;;;;;;;;;;5060470;27;88029;-55
2023/07/12 13:34:55;;;;;;;0.30;0.30;;;;;;;;;;5060820;27;87640;-55
2023/07/12 13:37:28;;;;;;;1.37;0.50;;;;;;;;;;5060214;27;88197;-55
2023/07/12 13:39:56;;;;;;;0.87;0.53;;;;;;;;;;5063987;27;88020;-55
2023/07/12 13:42:28;;;;;;;0.30;0.30;;;;;;;;;;5063977;27;88927;-55
2023/07/12 13:45:12;;;;;;;0.83;0.30;;;;;;;;;;5063679;27;87652;-55
2023/07/12 13:47:44;;;;;;;0.30;0.30;;;;;;;;;;5063942;27;90084;-55
2023/07/12 13:50:18;;;;;;;1.03;0.43;;;;;;;;;;5063738;27;88019;-55
2023/07/12 13:52:48;;;;;;;0.73;0.40;;;;;;;;;;5064136;27;87820;-56
2023/07/12 13:55:18;;;;;;;0.60;0.60;;;;;;;;;;5064247;27;87720;-56
2023/07/12 13:57:47;;;;;;;1.63;0.40;;;;;;;;;;5063984;27;89715;-55
2023/07/12 14:00:18;;;;;;;0.83;0.67;;;;;;;;;;5063459;27;88216;-55
2023/07/12 14:02:50;;;;;;;1.17;0.67;;;;;;;;;;5063798;27;88496;-55
2023/07/12 14:05:33;;;;;;;3.07;0.70;;;;;;;;;;5064187;27;87432;-55
2023/07/12 14:08:06;;;;;;;1.10;0.90;;;;;;;;;;5062414;27;88148;-55
2023/07/12 14:10:54;;;;;;;2.30;0.70;;;;;;;;;;5063189;27;87792;-55
2023/07/12 14:13:22;;;;;;;1.50;0.83;;;;;;;;;;5063547;27;90160;-56
2023/07/12 14:15:51;;;;;;;2.87;0.80;;;;;;;;;;5059313;27;87674;-55
2023/07/12 14:18:19;;;;;;;0.80;0.80;;;;;;;;;;5052750;27;88752;-56
2023/07/12 14:20:49;;;;;;;1.27;0.90;;;;;;;;;;5063420;27;87249;-55
2023/07/12 14:23:20;;;;;;;1.33;1.10;;;;;;;;;;5061911;27;87690;-55
2023/07/12 14:25:48;;;;;;;3.47;1.33;;;;;;;;;;5049113;27;88518;-55
2023/07/12 14:28:16;;;;;;;3.17;1.20;;;;;;;;;;5047031;27;89542;-55
2023/07/12 14:30:45;;;;;;;1.77;0.97;;;;;;;;;;5043327;27;92302;-55
2023/07/12 14:33:34;;;;;;;3.63;1.07;;;;;;;;;;5042785;27;89105;-55
2023/07/12 14:36:03;;;;;;;2.50;1.37;;;;;;;;;;5035450;27;88181;-54
2023/07/12 14:38:34;;;;;;;1.17;0.90;;;;;;;;;;5058138;27;88147;-56
2023/07/12 14:41:03;;;;;;;3.70;0.90;;;;;;;;;;5060200;27;88378;-55
2023/07/12 14:43:31;;;;;;;3.43;1.07;;;;;;;;;;5058533;27;87705;-55
2023/07/12 14:46:00;;;;;;;1.57;1.00;;;;;;;;;;5033601;27;87688;-56
2023/07/12 14:48:28;;;;;;;1.60;0.50;;;;;;;;;;5054466;27;89426;-56
2023/07/12 14:50:57;;;;;;;2.20;0.83;;;;;;;;;;5059487;27;88328;-56
2023/07/12 14:53:25;;;;;;;1.40;0.83;;;;;;;;;;5042282;27;88121;-55
2023/07/12 14:55:55;;;;;;;1.13;0.60;;;;;;;;;;5046784;27;87679;-56
2023/07/12 14:58:23;;;;;;;1.13;0.50;;;;;;;;;;5045495;27;87593;-54